Time;durP1;ratioP1;P1;durP2;ratioP2;P2;SDS_P1;SDS_P2;PMS_P1;PMS_P2;Temp;Humidity;BMP_temperature;BMP_pressure;BME280_temperature;BME280_humidity;BME280_pressure;Samples;Min_cycle;Max_cycle;Signal;HPM_P1;HPM_P2
2023/04/09 00:00:14;;;;;;;;;;;18.00;77.10;;;;;;5096593;28;19935;-68
2023/04/09 00:02:41;;;;;;;;;;;18.00;76.50;;;;;;5096271;28;20200;-66
2023/04/09 00:05:08;;;;;;;;;;;18.00;76.80;;;;;;5077817;28;19907;-64
2023/04/09 00:07:35;;;;;;;;;;;18.20;76.50;;;;;;5078142;28;20033;-66
2023/04/09 00:10:01;;;;;;;;;;;18.20;76.40;;;;;;5096204;28;19914;-64
2023/04/09 00:12:29;;;;;;;;;;;18.20;77.00;;;;;;5096123;28;19908;-66
2023/04/09 00:14:56;;;;;;;;;;;18.20;76.90;;;;;;5096492;28;20174;-67
2023/04/09 00:17:22;;;;;;;;;;;18.20;76.70;;;;;;5097753;28;19999;-63
2023/04/09 00:19:49;;;;;;;;;;;18.20;76.50;;;;;;5096402;28;19984;-65
2023/04/09 00:22:16;;;;;;;;;;;18.30;76.40;;;;;;5096330;28;19912;-65
2023/04/09 00:24:43;;;;;;;;;;;18.30;77.10;;;;;;5095938;28;20241;-66
2023/04/09 00:27:09;;;;;;;;;;;18.30;75.90;;;;;;5096869;28;19908;-66
2023/04/09 00:29:36;;;;;;;;;;;18.40;75.70;;;;;;5095802;28;19930;-65
2023/04/09 00:32:03;;;;;;;;;;;18.40;75.70;;;;;;5096006;28;19953;-65
2023/04/09 00:34:29;;;;;;;;;;;18.50;76.80;;;;;;5096774;28;20465;-64
2023/04/09 00:36:56;;;;;;;;;;;18.60;76.60;;;;;;5096684;28;19961;-67
2023/04/09 00:39:22;;;;;;;;;;;18.70;75.60;;;;;;5097714;28;19908;-64
2023/04/09 00:41:49;;;;;;;;;;;18.70;76.40;;;;;;5098830;28;19919;-66
2023/04/09 00:44:16;;;;;;;;;;;18.70;74.80;;;;;;5100629;28;19908;-65
2023/04/09 00:46:42;;;;;;;;;;;18.90;75.90;;;;;;5099945;28;19962;-65
2023/04/09 00:49:09;;;;;;;;;;;18.80;74.70;;;;;;5099772;28;19912;-64
2023/04/09 00:51:37;;;;;;;;;;;18.90;75.00;;;;;;5099414;28;19914;-65
2023/04/09 00:54:04;;;;;;;;;;;19.10;75.80;;;;;;5099478;28;20574;-65
2023/04/09 00:56:31;;;;;;;;;;;19.20;75.50;;;;;;5082500;28;19912;-66
2023/04/09 00:58:58;;;;;;;;;;;19.40;73.90;;;;;;5099911;28;19915;-67
2023/04/09 01:01:25;;;;;;;;;;;19.30;74.00;;;;;;5100405;28;20150;-66
2023/04/09 01:03:52;;;;;;;;;;;19.30;73.90;;;;;;5098354;28;19918;-68
2023/04/09 01:06:47;;;;;;;;;;;19.40;73.40;;;;;;5099748;28;20245;-67
2023/04/09 01:09:27;;;;;;;;;;;19.40;74.60;;;;;;5081331;28;19955;-71
2023/04/09 01:11:56;;;;;;;;;;;19.40;74.20;;;;;;5097319;28;20091;-64
2023/04/09 01:14:36;;;;;;;;;;;19.50;75.00;;;;;;5098811;28;19915;-72
2023/04/09 01:17:05;;;;;;;;;;;19.60;73.80;;;;;;5099607;28;19907;-63
2023/04/09 01:19:41;;;;;;;;;;;19.70;73.40;;;;;;5100243;28;19960;-67
2023/04/09 01:22:13;;;;;;;;;;;19.70;73.80;;;;;;5099629;28;19915;-69
2023/04/09 01:24:46;;;;;;;;;;;19.70;72.70;;;;;;5098794;28;19957;-67
2023/04/09 01:27:13;;;;;;;;;;;19.70;73.80;;;;;;5098833;28;19907;-70
2023/04/09 01:29:43;;;;;;;;;;;19.90;73.10;;;;;;5099413;28;19915;-67
2023/04/09 01:32:10;;;;;;;;;;;20.00;74.00;;;;;;5097641;28;20301;-66
2023/04/09 01:34:37;;;;;;;;;;;20.10;72.80;;;;;;5093641;28;19966;-67
2023/04/09 01:37:05;;;;;;;;;;;20.10;73.10;;;;;;5088844;28;19936;-65
2023/04/09 01:39:32;;;;;;;;;;;20.20;73.40;;;;;;5098186;28;20002;-69
2023/04/09 01:42:00;;;;;;;;;;;20.30;72.30;;;;;;5092757;28;20014;-67
2023/04/09 01:44:27;;;;;;;;;;;20.40;72.90;;;;;;5085159;28;19912;-66
2023/04/09 01:46:54;;;;;;;;;;;20.50;71.80;;;;;;5077695;28;19993;-67
2023/04/09 01:49:21;;;;;;;;;;;20.80;73.60;;;;;;5059407;28;20399;-66
2023/04/09 01:51:48;;;;;;;;;;;20.90;71.20;;;;;;5076508;28;19912;-65
2023/04/09 01:54:15;;;;;;;;;;;20.90;69.30;;;;;;5076670;28;19923;-68
2023/04/09 01:56:43;;;;;;;;;;;20.90;70.40;;;;;;5077211;28;19908;-66
2023/04/09 01:59:09;;;;;;;;;;;21.00;69.70;;;;;;5077451;28;19909;-65
2023/04/09 02:01:46;;;;;;;;;;;21.20;68.90;;;;;;5077279;28;19919;-66
2023/04/09 02:04:19;;;;;;;;;;;21.20;68.80;;;;;;5077082;28;19909;-73
2023/04/09 02:06:48;;;;;;;;;;;21.50;67.90;;;;;;5078490;28;19916;-67
2023/04/09 02:09:17;;;;;;;;;;;21.50;67.50;;;;;;5078590;28;19916;-66
2023/04/09 02:11:45;;;;;;;;;;;21.60;67.50;;;;;;5095509;28;20276;-68
2023/04/09 02:14:12;;;;;;;;;;;21.40;66.50;;;;;;5098823;28;19918;-68
2023/04/09 02:16:40;;;;;;;;;;;21.60;67.50;;;;;;5099299;28;19908;-65
2023/04/09 02:19:06;;;;;;;;;;;21.60;66.20;;;;;;5097905;28;19973;-64
2023/04/09 02:21:33;;;;;;;;;;;21.60;66.00;;;;;;5095420;28;19934;-67
2023/04/09 02:24:00;;;;;;;;;;;21.70;67.40;;;;;;5077513;28;19919;-67
2023/04/09 02:26:26;;;;;;;;;;;21.80;66.60;;;;;;5077826;28;20306;-66
2023/04/09 02:28:53;;;;;;;;;;;21.90;67.00;;;;;;5077356;28;19908;-65
2023/04/09 02:31:19;;;;;;;;;;;22.10;66.40;;;;;;5078017;28;19996;-67
2023/04/09 02:33:46;;;;;;;;;;;22.30;66.50;;;;;;5095804;28;20002;-68
2023/04/09 02:36:13;;;;;;;;;;;22.40;65.10;;;;;;5098794;28;19911;-73
2023/04/09 02:38:40;;;;;;;;;;;22.60;66.10;;;;;;5093485;28;20003;-72
2023/04/09 02:41:07;;;;;;;;;;;23.10;64.40;;;;;;5077400;28;20388;-68
2023/04/09 02:43:34;;;;;;;;;;;23.60;65.30;;;;;;5098141;28;19918;-68
2023/04/09 02:46:00;;;;;;;;;;;24.40;64.20;;;;;;5097714;28;19908;-66
2023/04/09 02:48:27;;;;;;;;;;;25.30;61.90;;;;;;5097579;28;20352;-67
2023/04/09 02:50:53;;;;;;;;;;;26.20;60.10;;;;;;5097865;28;19911;-67
2023/04/09 02:53:24;;;;;;;;;;;27.20;60.00;;;;;;5098604;28;19908;-67
2023/04/09 02:55:50;;;;;;;;;;;28.30;58.70;;;;;;5098961;28;20253;-66
2023/04/09 02:58:17;;;;;;;;;;;28.90;57.00;;;;;;5098218;28;19908;-67
2023/04/09 03:00:44;;;;;;;;;;;29.30;55.60;;;;;;5098531;28;19912;-66
2023/04/09 03:03:10;;;;;;;;;;;30.00;54.70;;;;;;5096471;28;19954;-69
2023/04/09 03:05:37;;;;;;;;;;;30.80;51.90;;;;;;5097779;28;19908;-69
2023/04/09 03:08:04;;;;;;;;;;;31.10;53.20;;;;;;5097492;28;19908;-67
2023/04/09 03:10:31;;;;;;;;;;;31.30;50.80;;;;;;5095161;28;19965;-69
2023/04/09 03:12:57;;;;;;;;;;;31.90;50.60;;;;;;5097002;28;19907;-66
2023/04/09 03:15:24;;;;;;;;;;;32.60;50.30;;;;;;5079772;28;19916;-66
2023/04/09 03:17:51;;;;;;;;;;;32.60;51.00;;;;;;5078115;28;19920;-66
2023/04/09 03:20:17;;;;;;;;;;;32.30;49.00;;;;;;5077388;28;19915;-67
2023/04/09 03:22:44;;;;;;;;;;;32.00;48.90;;;;;;5077020;28;19947;-65
2023/04/09 03:25:10;;;;;;;;;;;32.10;49.50;;;;;;5076772;28;20253;-66
2023/04/09 03:27:37;;;;;;;;;;;32.50;48.80;;;;;;5077088;28;19908;-66
2023/04/09 03:30:04;;;;;;;;;;;32.50;49.10;;;;;;5076822;28;19908;-69
2023/04/09 03:32:30;;;;;;;;;;;33.20;49.10;;;;;;5076557;28;19919;-65
2023/04/09 03:34:57;;;;;;;;;;;33.30;48.60;;;;;;5077691;28;19920;-67
2023/04/09 03:37:24;;;;;;;;;;;33.70;47.50;;;;;;5078223;28;19915;-66
2023/04/09 03:39:50;;;;;;;;;;;34.30;48.40;;;;;;5077527;28;19986;-65
2023/04/09 03:42:17;;;;;;;;;;;34.30;48.20;;;;;;5076102;28;19926;-67
2023/04/09 03:44:43;;;;;;;;;;;33.70;47.30;;;;;;5076925;28;19908;-67
2023/04/09 03:47:10;;;;;;;;;;;33.10;48.70;;;;;;5076592;28;19915;-65
2023/04/09 03:49:37;;;;;;;;;;;33.20;47.50;;;;;;5092525;28;19908;-66
2023/04/09 03:52:03;;;;;;;;;;;33.90;48.10;;;;;;5097205;28;19915;-66
2023/04/09 03:54:30;;;;;;;;;;;34.60;47.80;;;;;;5097805;28;20027;-69
2023/04/09 03:56:57;;;;;;;;;;;34.90;46.80;;;;;;5083776;28;19960;-68
2023/04/09 03:59:24;;;;;;;;;;;34.60;47.70;;;;;;5078276;28;19912;-69
2023/04/09 04:01:50;;;;;;;;;;;34.20;47.50;;;;;;5096652;28;19916;-68
2023/04/09 04:04:17;;;;;;;;;;;34.10;47.20;;;;;;5083112;28;20102;-65
2023/04/09 04:06:44;;;;;;;;;;;33.70;46.70;;;;;;5085307;28;19912;-67
2023/04/09 04:09:10;;;;;;;;;;;33.30;47.20;;;;;;5096464;28;19955;-66
2023/04/09 04:11:37;;;;;;;;;;;33.50;46.90;;;;;;5096897;28;20417;-68
2023/04/09 04:14:04;;;;;;;;;;;33.70;47.40;;;;;;5097655;28;19965;-68
2023/04/09 04:16:31;;;;;;;;;;;34.20;47.80;;;;;;5070362;28;20276;-67
2023/04/09 04:18:57;;;;;;;;;;;34.50;46.80;;;;;;5081415;28;19912;-65
2023/04/09 04:21:24;;;;;;;;;;;34.60;46.50;;;;;;5061210;28;19937;-66
2023/04/09 04:23:51;;;;;;;;;;;34.70;46.20;;;;;;5084163;28;19908;-66
2023/04/09 04:26:17;;;;;;;;;;;35.20;45.90;;;;;;5085330;28;19991;-67
2023/04/09 04:28:44;;;;;;;;;;;35.60;45.80;;;;;;5079947;28;19954;-66
2023/04/09 04:31:11;;;;;;;;;;;35.40;45.20;;;;;;5079603;28;19919;-68
2023/04/09 04:33:39;;;;;;;;;;;34.60;45.70;;;;;;5086198;28;19957;-68
2023/04/09 04:36:06;;;;;;;;;;;34.60;45.50;;;;;;5100982;28;20380;-68
2023/04/09 04:38:33;;;;;;;;;;;34.40;44.90;;;;;;5083028;28;19908;-65
2023/04/09 04:41:00;;;;;;;;;;;34.30;45.20;;;;;;5101187;28;20019;-66
2023/04/09 04:43:27;;;;;;;;;;;33.60;45.80;;;;;;5099602;28;19915;-68
2023/04/09 04:45:54;;;;;;;;;;;32.90;46.10;;;;;;5100666;28;19911;-68
2023/04/09 04:48:21;;;;;;;;;;;32.70;46.80;;;;;;5100061;28;19911;-65
2023/04/09 04:50:54;;;;;;;;;;;32.70;46.30;;;;;;5086235;28;19908;-66
2023/04/09 04:53:20;;;;;;;;;;;32.70;47.20;;;;;;5084175;28;19951;-66
2023/04/09 04:55:47;;;;;;;;;;;33.10;47.30;;;;;;5100153;28;20101;-64
2023/04/09 04:58:14;;;;;;;;;;;33.40;46.60;;;;;;5100676;28;19930;-67
2023/04/09 05:00:40;;;;;;;;;;;33.20;46.00;;;;;;5095796;28;19912;-67
2023/04/09 05:03:07;;;;;;;;;;;32.90;46.40;;;;;;5080695;28;19913;-67
2023/04/09 05:05:33;;;;;;;;;;;33.30;46.50;;;;;;5079847;28;19969;-69
2023/04/09 05:08:00;;;;;;;;;;;33.30;46.00;;;;;;5079685;28;20546;-64
2023/04/09 05:10:27;;;;;;;;;;;33.40;45.70;;;;;;5079226;28;19919;-66
2023/04/09 05:12:53;;;;;;;;;;;33.80;45.70;;;;;;5079476;28;20348;-66
2023/04/09 05:15:20;;;;;;;;;;;34.20;45.90;;;;;;5079209;28;19919;-66
2023/04/09 05:17:46;;;;;;;;;;;33.90;45.90;;;;;;5079191;28;20325;-67
2023/04/09 05:20:13;;;;;;;;;;;34.10;45.80;;;;;;5080060;28;19919;-66
2023/04/09 05:22:40;;;;;;;;;;;34.40;45.10;;;;;;5080316;28;19908;-66
2023/04/09 05:25:07;;;;;;;;;;;33.70;45.30;;;;;;5081324;28;20010;-66
2023/04/09 05:27:33;;;;;;;;;;;33.70;45.30;;;;;;5084274;28;20157;-66
2023/04/09 05:30:00;;;;;;;;;;;33.20;46.30;;;;;;5099560;28;19912;-67
2023/04/09 05:32:26;;;;;;;;;;;33.60;46.30;;;;;;5098998;28;19908;-68
2023/04/09 05:34:53;;;;;;;;;;;33.60;45.70;;;;;;5099037;28;19923;-66
2023/04/09 05:37:20;;;;;;;;;;;33.30;46.50;;;;;;5099415;28;20368;-67
2023/04/09 05:39:47;;;;;;;;;;;34.10;46.00;;;;;;5076091;28;19912;-67
2023/04/09 05:42:13;;;;;;;;;;;34.50;45.50;;;;;;5079508;28;20483;-69
2023/04/09 05:44:40;;;;;;;;;;;34.60;44.80;;;;;;5094561;28;19957;-66
2023/04/09 05:47:06;;;;;;;;;;;34.00;45.50;;;;;;5079028;28;19916;-67
2023/04/09 05:49:33;;;;;;;;;;;33.60;45.70;;;;;;5077454;28;20020;-65
2023/04/09 05:52:00;;;;;;;;;;;33.40;46.40;;;;;;5089346;28;19953;-67
2023/04/09 05:54:26;;;;;;;;;;;32.90;46.20;;;;;;5096399;28;19911;-63
2023/04/09 05:56:53;;;;;;;;;;;32.80;47.00;;;;;;5098179;28;19958;-67
2023/04/09 05:59:20;;;;;;;;;;;32.60;46.50;;;;;;5098766;28;20550;-68
2023/04/09 06:01:46;;;;;;;;;;;32.50;47.90;;;;;;5098468;28;19915;-67
2023/04/09 06:04:13;;;;;;;;;;;32.50;46.30;;;;;;5099543;28;19908;-66
2023/04/09 06:06:40;;;;;;;;;;;32.80;46.30;;;;;;5097902;28;20272;-67
2023/04/09 06:09:07;;;;;;;;;;;32.30;46.50;;;;;;5098544;28;19952;-67
2023/04/09 06:11:34;;;;;;;;;;;32.50;46.80;;;;;;5098111;28;20349;-66
2023/04/09 06:14:01;;;;;;;;;;;32.70;46.80;;;;;;5098036;28;20671;-67
2023/04/09 06:16:27;;;;;;;;;;;32.70;46.80;;;;;;5098232;28;20272;-67
2023/04/09 06:18:55;;;;;;;;;;;31.90;47.30;;;;;;5098657;28;19911;-71
2023/04/09 06:21:22;;;;;;;;;;;31.60;47.40;;;;;;5097047;28;20379;-66
2023/04/09 06:23:49;;;;;;;;;;;31.70;47.20;;;;;;5098930;28;19912;-68
2023/04/09 06:26:16;;;;;;;;;;;31.50;46.80;;;;;;5098614;28;19912;-68
2023/04/09 06:28:43;;;;;;;;;;;31.50;47.30;;;;;;5096842;28;19908;-66
2023/04/09 06:31:09;;;;;;;;;;;31.30;47.20;;;;;;5097362;28;19912;-69
2023/04/09 06:33:36;;;;;;;;;;;31.00;47.50;;;;;;5097592;28;19915;-71
2023/04/09 06:36:03;;;;;;;;;;;30.80;47.60;;;;;;5097752;28;20428;-65
2023/04/09 06:38:29;;;;;;;;;;;30.60;47.70;;;;;;5069464;28;19953;-69
2023/04/09 06:40:56;;;;;;;;;;;30.40;48.10;;;;;;5082866;28;19920;-69
2023/04/09 06:43:23;;;;;;;;;;;30.30;48.20;;;;;;5099044;28;19953;-68
2023/04/09 06:45:49;;;;;;;;;;;30.60;48.10;;;;;;5098562;28;19915;-66
2023/04/09 06:48:16;;;;;;;;;;;30.70;48.10;;;;;;5089446;28;19922;-66
2023/04/09 06:50:43;;;;;;;;;;;30.50;48.00;;;;;;5077014;28;20350;-68
2023/04/09 06:53:10;;;;;;;;;;;30.00;48.00;;;;;;5078413;28;19941;-66
2023/04/09 06:55:36;;;;;;;;;;;28.90;49.40;;;;;;5076176;28;19981;-66
2023/04/09 06:58:03;;;;;;;;;;;27.50;50.20;;;;;;5078291;28;19912;-69
2023/04/09 07:00:30;;;;;;;;;;;26.20;51.80;;;;;;5077699;28;20003;-67
2023/04/09 07:02:57;;;;;;;;;;;25.00;53.60;;;;;;5098771;28;20283;-69
2023/04/09 07:05:23;;;;;;;;;;;23.90;55.50;;;;;;5097724;28;20615;-65
2023/04/09 07:07:50;;;;;;;;;;;23.00;56.20;;;;;;5095044;28;19927;-66
2023/04/09 07:10:17;;;;;;;;;;;22.20;57.60;;;;;;5094188;28;19915;-66
2023/04/09 07:12:43;;;;;;;;;;;21.80;58.40;;;;;;5095484;28;19908;-66
2023/04/09 07:15:10;;;;;;;;;;;21.30;59.50;;;;;;5096905;28;19925;-69
2023/04/09 07:17:37;;;;;;;;;;;21.10;59.80;;;;;;5093605;28;20048;-70
2023/04/09 07:20:03;;;;;;;;;;;20.80;60.20;;;;;;5094640;28;19926;-65
2023/04/09 07:22:30;;;;;;;;;;;20.60;60.80;;;;;;5095522;28;19923;-65
2023/04/09 07:24:56;;;;;;;;;;;20.50;61.60;;;;;;5096088;28;19933;-68
2023/04/09 07:27:24;;;;;;;;;;;20.40;62.30;;;;;;5096115;28;20368;-67
2023/04/09 07:29:51;;;;;;;;;;;20.40;61.90;;;;;;5095148;28;19911;-65
2023/04/09 07:32:17;;;;;;;;;;;20.20;61.90;;;;;;5096736;28;19912;-67
2023/04/09 07:34:44;;;;;;;;;;;20.10;62.20;;;;;;5093603;28;20328;-65
2023/04/09 07:37:11;;;;;;;;;;;20.10;62.50;;;;;;5097339;28;20291;-64
2023/04/09 07:39:38;;;;;;;;;;;19.90;62.40;;;;;;5094368;28;19922;-65
2023/04/09 07:42:05;;;;;;;;;;;19.90;62.70;;;;;;5092999;28;19919;-65
2023/04/09 07:44:35;;;;;;;;;;;19.80;63.10;;;;;;5094572;28;19912;-64
2023/04/09 07:47:03;;;;;;;;;;;19.70;63.60;;;;;;5095890;28;20403;-67
2023/04/09 07:49:29;;;;;;;;;;;19.60;63.70;;;;;;5096986;28;19908;-64
2023/04/09 07:51:56;;;;;;;;;;;19.60;64.30;;;;;;5099164;28;20384;-68
2023/04/09 07:54:23;;;;;;;;;;;19.60;63.60;;;;;;5101248;28;19915;-66
2023/04/09 07:56:50;;;;;;;;;;;19.50;64.00;;;;;;5099071;28;19953;-69
2023/04/09 07:59:17;;;;;;;;;;;19.40;64.30;;;;;;5101076;28;20244;-64
2023/04/09 08:01:44;;;;;;;;;;;19.40;64.40;;;;;;5097506;28;20059;-65
2023/04/09 08:04:11;;;;;;;;;;;19.30;64.40;;;;;;5101082;28;19911;-67
2023/04/09 08:06:38;;;;;;;;;;;19.20;64.20;;;;;;5098900;28;19939;-68
2023/04/09 08:09:05;;;;;;;;;;;19.20;65.10;;;;;;5096248;28;19955;-71
2023/04/09 08:11:31;;;;;;;;;;;19.20;65.00;;;;;;5076574;28;19911;-67
2023/04/09 08:14:01;;;;;;;;;;;19.20;64.90;;;;;;5092133;28;19913;-69
2023/04/09 08:16:29;;;;;;;;;;;19.10;65.00;;;;;;5079095;28;20379;-67
2023/04/09 08:18:56;;;;;;;;;;;19.10;65.40;;;;;;5096482;28;19916;-68
2023/04/09 08:21:23;;;;;;;;;;;19.00;65.50;;;;;;5097601;28;19916;-65
2023/04/09 08:23:50;;;;;;;;;;;18.80;65.40;;;;;;5097520;28;19911;-69
2023/04/09 08:26:16;;;;;;;;;;;18.80;65.40;;;;;;5100849;28;19907;-69
2023/04/09 08:28:43;;;;;;;;;;;18.80;65.40;;;;;;5097796;28;19955;-67
2023/04/09 08:31:10;;;;;;;;;;;18.80;65.60;;;;;;5100052;28;19912;-68
2023/04/09 08:33:36;;;;;;;;;;;18.80;65.80;;;;;;5097911;28;19907;-65
2023/04/09 08:36:07;;;;;;;;;;;18.80;65.90;;;;;;5098202;28;19920;-64
2023/04/09 08:38:34;;;;;;;;;;;18.70;66.20;;;;;;5097924;28;20638;-66
2023/04/09 08:41:00;;;;;;;;;;;18.70;65.80;;;;;;5098650;28;19928;-69
2023/04/09 08:43:27;;;;;;;;;;;18.60;66.20;;;;;;5100370;28;19907;-66
2023/04/09 08:45:56;;;;;;;;;;;18.60;66.20;;;;;;5097489;28;19944;-69
2023/04/09 08:48:24;;;;;;;;;;;18.60;66.10;;;;;;5099603;28;19911;-65
2023/04/09 08:50:51;;;;;;;;;;;18.50;66.30;;;;;;5094168;28;20389;-70
2023/04/09 08:53:21;;;;;;;;;;;18.50;66.30;;;;;;5099872;28;20283;-70
2023/04/09 08:55:47;;;;;;;;;;;18.40;67.30;;;;;;5094983;28;19916;-70
2023/04/09 08:58:14;;;;;;;;;;;18.40;66.90;;;;;;5100075;28;19908;-67
2023/04/09 09:00:41;;;;;;;;;;;18.30;67.00;;;;;;5083382;28;19971;-68
2023/04/09 09:03:09;;;;;;;;;;;18.40;67.60;;;;;;5078873;28;19912;-69
2023/04/09 09:05:36;;;;;;;;;;;18.30;67.50;;;;;;5097395;28;19934;-66
2023/04/09 09:08:02;;;;;;;;;;;18.30;67.40;;;;;;5099230;28;19995;-71
2023/04/09 09:10:43;;;;;;;;;;;18.30;67.40;;;;;;5101049;28;19908;-69
2023/04/09 09:13:23;;;;;;;;;;;18.30;67.80;;;;;;5098073;28;19915;-70
2023/04/09 09:15:53;;;;;;;;;;;18.30;68.00;;;;;;5099477;28;19950;-69
2023/04/09 09:18:21;;;;;;;;;;;18.20;67.20;;;;;;5100797;28;19912;-70
2023/04/09 09:20:47;;;;;;;;;;;18.30;67.70;;;;;;5089918;28;19957;-70
2023/04/09 09:23:15;;;;;;;;;;;18.30;67.90;;;;;;5095677;28;19908;-71
2023/04/09 09:25:42;;;;;;;;;;;18.30;68.00;;;;;;5100067;28;19918;-73
2023/04/09 09:28:09;;;;;;;;;;;18.20;68.00;;;;;;5078983;28;19939;-70
2023/04/09 09:30:37;;;;;;;;;;;18.30;68.20;;;;;;5099745;28;19935;-70
2023/04/09 09:33:04;;;;;;;;;;;18.20;68.20;;;;;;5097240;28;20388;-69
2023/04/09 09:35:31;;;;;;;;;;;18.20;69.90;;;;;;5100752;28;19939;-66
2023/04/09 09:38:03;;;;;;;;;;;18.20;69.70;;;;;;5097732;28;20148;-68
2023/04/09 09:40:30;;;;;;;;;;;18.20;70.70;;;;;;5099652;28;19971;-68
2023/04/09 09:42:57;;;;;;;;;;;18.10;71.40;;;;;;5097815;28;19908;-70
2023/04/09 09:45:24;;;;;;;;;;;18.10;69.60;;;;;;5099794;28;19911;-66
2023/04/09 09:47:52;;;;;;;;;;;18.00;69.90;;;;;;5099615;28;20108;-68
2023/04/09 09:50:20;;;;;;;;;;;18.00;70.30;;;;;;5098242;28;19904;-67
2023/04/09 09:52:47;;;;;;;;;;;17.90;70.30;;;;;;5099557;28;20322;-68
2023/04/09 09:55:15;;;;;;;;;;;17.90;71.00;;;;;;5097648;28;20353;-68
2023/04/09 09:57:44;;;;;;;;;;;17.80;71.10;;;;;;5099946;28;20002;-65
2023/04/09 10:00:12;;;;;;;;;;;17.80;71.10;;;;;;5098043;27;19911;-66
2023/04/09 10:02:52;;;;;;;;;;;17.70;70.30;;;;;;5100482;27;19919;-65
2023/04/09 10:05:23;;;;;;;;;;;17.70;70.10;;;;;;5096789;28;19911;-66
2023/04/09 10:07:51;;;;;;;;;;;17.60;70.40;;;;;;5099339;28;19932;-69
2023/04/09 10:10:17;;;;;;;;;;;17.50;70.60;;;;;;5096843;28;19953;-67
2023/04/09 10:12:44;;;;;;;;;;;17.40;70.60;;;;;;5100101;28;19914;-68
2023/04/09 10:15:11;;;;;;;;;;;17.50;70.90;;;;;;5080534;28;19916;-68
2023/04/09 10:17:38;;;;;;;;;;;17.40;71.20;;;;;;5078203;28;19912;-66
2023/04/09 10:20:10;;;;;;;;;;;17.40;71.30;;;;;;5090446;28;19908;-67
2023/04/09 10:22:38;;;;;;;;;;;17.40;71.40;;;;;;5098400;28;19950;-65
2023/04/09 10:25:05;;;;;;;;;;;17.30;71.50;;;;;;5097980;28;20370;-67
2023/04/09 10:27:31;;;;;;;;;;;17.30;71.60;;;;;;5079443;28;19959;-66
2023/04/09 10:30:01;;;;;;;;;;;17.20;71.80;;;;;;5099430;28;20352;-66
2023/04/09 10:32:33;;;;;;;;;;;17.20;71.60;;;;;;5097021;28;19916;-68
2023/04/09 10:35:02;;;;;;;;;;;17.20;71.60;;;;;;5098797;28;20031;-67
2023/04/09 10:37:28;;;;;;;;;;;17.20;71.70;;;;;;5097781;28;19908;-67
2023/04/09 10:39:56;;;;;;;;;;;17.20;72.00;;;;;;5098527;28;19908;-65
2023/04/09 10:42:26;;;;;;;;;;;17.10;72.40;;;;;;5095596;28;20157;-66
2023/04/09 10:45:11;;;;;;;;;;;17.00;72.10;;;;;;5098602;28;20365;-67
2023/04/09 10:47:39;;;;;;;;;;;17.00;72.60;;;;;;5098464;28;20292;-67
2023/04/09 10:50:24;;;;;;;;;;;17.10;73.10;;;;;;5098455;28;19947;-66
2023/04/09 10:52:59;;;;;;;;;;;17.00;72.90;;;;;;5098414;28;19915;-67
2023/04/09 10:55:43;;;;;;;;;;;16.90;73.30;;;;;;5096295;28;19972;-70
2023/04/09 10:58:10;;;;;;;;;;;16.90;73.10;;;;;;5097044;28;19918;-68
2023/04/09 11:00:38;;;;;;;;;;;16.80;73.10;;;;;;5098023;28;19908;-67
2023/04/09 11:03:17;;;;;;;;;;;16.90;73.60;;;;;;5097942;28;19930;-68
2023/04/09 11:05:48;;;;;;;;;;;16.80;73.40;;;;;;5097261;28;19911;-65
2023/04/09 11:08:15;;;;;;;;;;;16.80;73.80;;;;;;5088602;28;19919;-69
2023/04/09 11:10:46;;;;;;;;;;;16.80;73.90;;;;;;5077286;28;19916;-69
2023/04/09 11:13:14;;;;;;;;;;;16.70;73.90;;;;;;5083618;28;19940;-67
2023/04/09 11:15:41;;;;;;;;;;;16.70;74.50;;;;;;5096785;28;20348;-68
2023/04/09 11:18:12;;;;;;;;;;;16.70;74.30;;;;;;5097459;28;19957;-68
2023/04/09 11:20:39;;;;;;;;;;;16.60;74.60;;;;;;5096986;28;19908;-66
2023/04/09 11:23:06;;;;;;;;;;;16.60;75.30;;;;;;5097939;28;20019;-68
2023/04/09 11:25:34;;;;;;;;;;;16.70;74.70;;;;;;5095400;28;20781;-67
2023/04/09 11:28:04;;;;;;;;;;;16.60;74.70;;;;;;5096852;28;19923;-68
2023/04/09 11:30:33;;;;;;;;;;;16.60;75.20;;;;;;5075189;28;20163;-68
2023/04/09 11:33:00;;;;;;;;;;;16.60;75.20;;;;;;5076952;28;19908;-68
2023/04/09 11:35:27;;;;;;;;;;;16.50;75.20;;;;;;5076010;28;19916;-66
2023/04/09 11:37:54;;;;;;;;;;;16.50;75.20;;;;;;5092432;28;19915;-68
2023/04/09 11:40:24;;;;;;;;;;;16.40;75.20;;;;;;5095156;28;19912;-67
2023/04/09 11:42:54;;;;;;;;;;;16.40;75.30;;;;;;5097895;28;19911;-66
2023/04/09 11:45:25;;;;;;;;;;;16.40;75.60;;;;;;5094866;28;20300;-67
2023/04/09 11:47:52;;;;;;;;;;;16.40;75.70;;;;;;5097778;28;20463;-67
2023/04/09 11:50:19;;;;;;;;;;;16.40;76.20;;;;;;5095593;28;19972;-69
2023/04/09 11:52:46;;;;;;;;;;;16.40;75.90;;;;;;5097657;28;19915;-67
2023/04/09 11:55:23;;;;;;;;;;;16.30;76.30;;;;;;5096530;28;19920;-67
2023/04/09 11:57:53;;;;;;;;;;;16.30;76.20;;;;;;5096635;28;19912;-68
2023/04/09 12:00:19;;;;;;;;;;;16.30;76.80;;;;;;5090907;28;19919;-70
2023/04/09 12:02:48;;;;;;;;;;;16.20;76.30;;;;;;5084348;28;19912;-69
2023/04/09 12:05:21;;;;;;;;;;;16.20;77.00;;;;;;5094489;28;19923;-68
2023/04/09 12:07:48;;;;;;;;;;;16.20;77.00;;;;;;5096702;28;19931;-67
2023/04/09 12:10:15;;;;;;;;;;;16.20;77.30;;;;;;5095927;28;19961;-68
2023/04/09 12:12:45;;;;;;;;;;;16.20;77.20;;;;;;5094456;28;20393;-68
2023/04/09 12:15:19;;;;;;;;;;;16.10;77.00;;;;;;5096006;28;19935;-71
2023/04/09 12:17:55;;;;;;;;;;;16.10;77.50;;;;;;5094294;28;20283;-68
2023/04/09 12:20:35;;;;;;;;;;;16.20;78.00;;;;;;5091978;28;20086;-68
2023/04/09 12:23:03;;;;;;;;;;;16.20;77.60;;;;;;5093977;28;19918;-68
2023/04/09 12:25:30;;;;;;;;;;;16.10;77.60;;;;;;5093870;28;20259;-66
2023/04/09 12:27:57;;;;;;;;;;;16.10;77.80;;;;;;5096197;28;20002;-67
2023/04/09 12:30:24;;;;;;;;;;;16.10;77.70;;;;;;5093828;28;19919;-68
2023/04/09 12:32:51;;;;;;;;;;;16.00;77.60;;;;;;5077644;28;19941;-69
2023/04/09 12:35:18;;;;;;;;;;;16.10;78.50;;;;;;5076714;28;19916;-68
2023/04/09 12:37:46;;;;;;;;;;;16.00;79.00;;;;;;5079517;28;20586;-67
2023/04/09 12:40:15;;;;;;;;;;;16.00;78.80;;;;;;5080088;28;19977;-68
2023/04/09 12:42:43;;;;;;;;;;;15.90;79.00;;;;;;5079021;28;19919;-67
2023/04/09 12:45:10;;;;;;;;;;;15.90;79.10;;;;;;5090483;28;19912;-67
2023/04/09 12:47:38;;;;;;;;;;;15.80;78.90;;;;;;5099410;28;19908;-68
2023/04/09 12:50:05;;;;;;;;;;;15.90;79.80;;;;;;5101633;28;19908;-68
2023/04/09 12:52:33;;;;;;;;;;;15.80;79.20;;;;;;5098591;28;19908;-67
2023/04/09 12:55:00;;;;;;;;;;;15.80;79.30;;;;;;5100947;28;19915;-69
2023/04/09 12:57:27;;;;;;;;;;;15.80;80.10;;;;;;5100245;28;19908;-68
2023/04/09 12:59:54;;;;;;;;;;;15.70;79.70;;;;;;5098557;28;19911;-67
2023/04/09 13:02:20;;;;;;;;;;;15.70;79.90;;;;;;5100625;28;19912;-66
2023/04/09 13:04:48;;;;;;;;;;;15.70;79.60;;;;;;5098496;28;19918;-67
2023/04/09 13:07:16;;;;;;;;;;;15.70;79.90;;;;;;5100874;28;20399;-67
2023/04/09 13:09:43;;;;;;;;;;;15.70;81.30;;;;;;5099637;28;19952;-68
2023/04/09 13:12:10;;;;;;;;;;;15.70;80.40;;;;;;5100373;28;19964;-69
2023/04/09 13:14:39;;;;;;;;;;;15.60;80.50;;;;;;5100089;28;20399;-69
2023/04/09 13:17:06;;;;;;;;;;;15.60;80.50;;;;;;5099029;28;19919;-66
2023/04/09 13:19:33;;;;;;;;;;;15.60;80.50;;;;;;5099607;28;20562;-67
2023/04/09 13:21:59;;;;;;;;;;;15.60;80.80;;;;;;5098329;28;19919;-67
2023/04/09 13:24:26;;;;;;;;;;;15.50;80.60;;;;;;5100546;28;20269;-69
2023/04/09 13:26:53;;;;;;;;;;;15.50;80.90;;;;;;5098274;28;19915;-68
2023/04/09 13:29:20;;;;;;;;;;;15.50;81.70;;;;;;5090269;28;19955;-68
2023/04/09 13:31:46;;;;;;;;;;;15.50;81.60;;;;;;5079006;28;19943;-68
2023/04/09 13:34:13;;;;;;;;;;;15.40;81.90;;;;;;5079304;28;20323;-67
2023/04/09 13:36:40;;;;;;;;;;;15.50;82.00;;;;;;5079158;28;20396;-66
2023/04/09 13:39:06;;;;;;;;;;;15.40;82.10;;;;;;5077423;28;19912;-67
2023/04/09 13:41:33;;;;;;;;;;;15.40;81.80;;;;;;5079856;28;19920;-68
2023/04/09 13:44:00;;;;;;;;;;;15.40;82.00;;;;;;5077561;28;19923;-68
2023/04/09 13:46:27;;;;;;;;;;;15.30;82.30;;;;;;5079556;28;20497;-68
2023/04/09 13:48:54;;;;;;;;;;;15.40;82.00;;;;;;5077198;28;20367;-68
2023/04/09 13:51:21;;;;;;;;;;;15.40;82.10;;;;;;5079616;28;19957;-66
2023/04/09 13:53:48;;;;;;;;;;;15.30;82.40;;;;;;5079526;28;20356;-69
2023/04/09 13:56:15;;;;;;;;;;;15.30;82.30;;;;;;5077805;28;19916;-68
2023/04/09 13:58:42;;;;;;;;;;;15.20;83.30;;;;;;5079029;28;19916;-68
2023/04/09 14:01:09;;;;;;;;;;;15.20;82.80;;;;;;5077754;28;20056;-69
2023/04/09 14:03:38;;;;;;;;;;;15.20;82.70;;;;;;5078974;28;19912;-68
2023/04/09 14:06:07;;;;;;;;;;;15.20;83.80;;;;;;5078580;28;19912;-68
2023/04/09 14:08:34;;;;;;;;;;;15.10;84.10;;;;;;5078320;28;19919;-71
2023/04/09 14:11:01;;;;;;;;;;;15.10;83.50;;;;;;5078411;28;19912;-70
2023/04/09 14:13:27;;;;;;;;;;;15.10;83.90;;;;;;5077635;28;19918;-69
2023/04/09 14:15:54;;;;;;;;;;;15.10;84.50;;;;;;5078991;28;19943;-69
2023/04/09 14:18:20;;;;;;;;;;;15.00;84.20;;;;;;5078158;28;19908;-69